^^
Meteo Knjazevac Station Historical Data
Daily Summary for September 27, 2021 Units:  English    Metric   Both
Daily Weekly Monthly Yearly Custom
  High: Low: Average:
Temperature: 55.2 °F 50.7 °F 52.6 °F
Dew Point: 48.8 °F 46.9 °F 47.8 °F
Humidity: 89% 79% 84%
Wind Speed: 1mph 0mph 0.6mph
Wind Gust: 6mph - -
Wind- - WSW
Pressure: 30.16 in 30.15 in -
Precipitation: 0.00 in    
Historical Graphs
 
 
Tabular Data for September 27, 2021
Time Temperature Dew Point Pressure Wind Wind Speed Wind Gust Humidity Rainfall Rate (Hourly) solar Conditions
00:00 55.2 °F 48.8 °F 30.16 in WNW 1 mph 2 mph 79% 0.00 in 0 W/m2
00:10 54.9 °F 48.5 °F 30.15 in Calm   2 mph 79% 0.00 in 0 W/m2
00:20 54.7 °F 48.6 °F 30.15 in Calm     80% 0.00 in 0 W/m2
00:30 54.3 °F 48.3 °F 30.15 in NW 1 mph 2 mph 80% 0.00 in 0 W/m2
00:40 54.1 °F 48.1 °F 30.15 in Calm   2 mph 80% 0.00 in 0 W/m2
00:50 53.8 °F 48.1 °F 30.16 in Calm   2 mph 81% 0.00 in 0 W/m2
01:00 53.6 °F 47.9 °F 30.16 in Calm   1 mph 81% 0.00 in 0 W/m2
01:10 53.2 °F 47.6 °F 30.16 in NNW 1 mph 3 mph 81% 0.00 in 0 W/m2
01:20 53.1 °F 48 °F 30.16 in WNW 1 mph 3 mph 83% 0.00 in 0 W/m2
01:30 53.1 °F 48.4 °F 30.15 in WNW 1 mph 3 mph 84% 0.00 in 0 W/m2
01:40 52.9 °F 48.2 °F 30.15 in Calm   3 mph 84% 0.00 in 0 W/m2
01:50 52.7 °F 47.7 °F 30.15 in WNW 1 mph 2 mph 83% 0.00 in 0 W/m2
02:00 52.4 °F 47.4 °F 30.15 in Calm   2 mph 83% 0.00 in 0 W/m2
02:10 52.3 °F 47.6 °F 30.15 in West 1 mph 2 mph 84% 0.00 in 0 W/m2
02:20 52 °F 47.3 °F 30.15 in NW 1 mph 3 mph 84% 0.00 in 0 W/m2
02:30 51.6 °F 46.9 °F 30.15 in Calm   2 mph 84% 0.00 in 0 W/m2
02:40 51.4 °F 47.1 °F 30.15 in Calm   2 mph 85% 0.00 in 0 W/m2
02:50 51.4 °F 47.3 °F 30.16 in NNW 1 mph 2 mph 86% 0.00 in 0 W/m2
03:00 51.1 °F 47 °F 30.16 in WNW 1 mph 2 mph 86% 0.00 in 0 W/m2
03:10 51.3 °F 47.8 °F 30.16 in SSW 1 mph 2 mph 88% 0.00 in 0 W/m2
03:20 51.1 °F 47.6 °F 30.15 in North 1 mph 2 mph 88% 0.00 in 0 W/m2
03:30 51.2 °F 48 °F 30.15 in Calm   2 mph 89% 0.00 in 0 W/m2
03:40 51.1 °F 47.6 °F 30.15 in NNW 1 mph 2 mph 88% 0.00 in 0 W/m2
03:50 50.7 °F 47.3 °F 30.15 in Calm   2 mph 88% 0.00 in 0 W/m2
04:00 50.7 °F 47.3 °F 30.15 in NE 1 mph 6 mph 88% 0.00 in 0 W/m2
Knjazevac, Serbia
Compliments of Weather Underground - 2 mb